International Virtual Aviation Organisation

Russian Federation and Kazakhstan MCD

 

Карточка аэропорта ULAA

Внимание!
Информация на этой странице в стадии наполнения.
Если вы не увидели какой-то информации, или заметили неточность - пожалуйста сообщите нам!
Спасибо!
Команда RU-STAFF
Название аэропортаТалаги
Название аэропорта (англ.)Talagi
Превышение62 ft. (18.9 m.)
Координаты64°36.018', 40°43.002'
Высота перехода800m
Эшелон переходаQFE>=760mm:FL040; QFE<760=>733:FL050; QFE<733:FL060
Коды ответчика3120-3127
Зона ОрВДАрхангельск РПИ (ULAA)
Данные METARULAA 282100Z 30009MPS 9999 BKN036 M01/M07 Q1006 R26/910560 NOSIG RMK QFE753/1004
Проноз погоды (TAF)ULAA 282000Z 2821/2921 28006G12MPS 9999 BKN016 TEMPO 2821/2903 32009G18MPS 1100 SHSN BLSN FEW004 BKN011CB TEMPO 2903/2915 32006G16MPS 3100 -SHSN BKN011CB TEMPO 2915/2921 32003G12MPS 5000 -SHSN BKN012CB
NOTAMshow/hide NOTAM
AWOS   TABLE

Информация о ВПП


Диспетчерские позиции

Позывной Наименование органа УВД Частота
ULAA_APPАрхангельск-Подход122.0
ULAA_TWRАрхангельск-Вышка121.8



Спутниковое изображение